createdAt,value
2022-08-22T00:03:09.242Z,18.67
2022-08-22T00:03:54.168Z,17.88
2022-08-22T00:09:08.572Z,17.81
2022-08-22T00:14:24.778Z,17.75
2022-08-22T00:19:42.079Z,17.72
2022-08-22T00:25:03.390Z,17.69
2022-08-22T00:30:15.886Z,17.64
2022-08-22T00:35:34.139Z,17.59
2022-08-22T00:40:58.013Z,17.51
2022-08-22T00:46:32.883Z,17.43
2022-08-22T00:51:54.292Z,17.37
2022-08-22T00:57:02.796Z,17.33
2022-08-22T01:02:32.157Z,17.30
2022-08-22T01:08:04.331Z,17.27
2022-08-22T01:13:36.876Z,17.25
2022-08-22T01:19:07.277Z,17.23
2022-08-22T01:25:08.432Z,17.19
2022-08-22T01:30:32.994Z,17.17
2022-08-22T01:35:44.985Z,17.17
2022-08-22T01:40:54.237Z,17.16
2022-08-22T01:45:57.100Z,17.14
2022-08-22T01:51:13.788Z,17.13
2022-08-22T01:56:20.099Z,17.12
2022-08-22T02:01:33.924Z,17.10
2022-08-22T02:06:42.998Z,17.13
2022-08-22T02:12:21.370Z,17.17
2022-08-22T02:17:48.848Z,17.20
2022-08-22T02:22:59.632Z,17.22
2022-08-22T02:28:18.664Z,17.23
2022-08-22T02:33:31.837Z,17.22
2022-08-22T02:39:00.913Z,17.22
2022-08-22T02:44:03.552Z,17.20
2022-08-22T02:49:17.002Z,17.20
2022-08-22T02:54:28.109Z,17.21
2022-08-22T03:00:31.819Z,17.21
2022-08-22T03:05:38.620Z,17.23
2022-08-22T03:10:47.714Z,17.25
2022-08-22T03:16:03.890Z,17.27
2022-08-22T03:21:32.129Z,17.29
2022-08-22T03:26:56.853Z,17.32
2022-08-22T03:32:20.537Z,17.35
2022-08-22T03:37:40.714Z,17.35
2022-08-22T03:43:02.133Z,17.36
2022-08-22T03:48:42.452Z,17.37
2022-08-22T03:54:00.128Z,17.40
2022-08-22T03:59:11.341Z,17.39
2022-08-22T04:04:22.792Z,17.39
2022-08-22T04:09:31.257Z,17.40
2022-08-22T04:15:10.893Z,17.43
2022-08-22T04:20:44.565Z,17.46
2022-08-22T04:25:55.324Z,17.48
2022-08-22T04:31:06.310Z,17.55
2022-08-22T04:36:20.259Z,17.59
2022-08-22T04:41:31.256Z,17.66
2022-08-22T04:46:39.476Z,17.71
2022-08-22T04:51:47.158Z,17.74
2022-08-22T04:56:52.524Z,17.75
2022-08-22T05:01:59.358Z,17.79
2022-08-22T05:07:19.836Z,17.85
2022-08-22T05:12:38.441Z,17.95
2022-08-22T05:17:44.321Z,18.08
2022-08-22T05:22:52.968Z,18.19
2022-08-22T05:28:12.207Z,18.31
2022-08-22T05:33:24.440Z,18.42
2022-08-22T05:38:34.917Z,18.50
2022-08-22T05:43:42.330Z,18.55
2022-08-22T05:48:57.594Z,18.60
2022-08-22T05:54:14.632Z,18.71
2022-08-22T05:59:17.456Z,18.80
2022-08-22T06:04:35.495Z,18.86
2022-08-22T06:09:47.073Z,18.95
2022-08-22T06:15:02.795Z,19.01
2022-08-22T06:20:21.430Z,19.09
2022-08-22T06:25:30.142Z,19.26
2022-08-22T06:30:35.794Z,19.41
2022-08-22T06:36:06.039Z,19.49
2022-08-22T06:41:11.093Z,19.51
2022-08-22T06:46:16.543Z,19.57
2022-08-22T06:51:20.880Z,19.63
2022-08-22T06:56:33.949Z,19.77
2022-08-22T07:01:45.647Z,19.94
2022-08-22T07:06:51.477Z,20.11
2022-08-22T07:11:59.342Z,20.41
2022-08-22T07:17:07.678Z,20.75
2022-08-22T07:22:15.105Z,21.04
2022-08-22T07:27:45.874Z,21.27
2022-08-22T07:33:25.323Z,21.38
2022-08-22T07:38:42.770Z,21.50
2022-08-22T07:43:49.001Z,21.63
2022-08-22T07:49:09.444Z,21.72
2022-08-22T07:54:28.021Z,21.83
2022-08-22T07:59:35.422Z,21.91
2022-08-22T08:04:40.728Z,21.98
2022-08-22T08:09:54.347Z,22.12
2022-08-22T08:14:58.402Z,22.26
2022-08-22T08:20:14.682Z,22.45
2022-08-22T08:25:25.883Z,22.74
2022-08-22T08:30:48.481Z,22.94
2022-08-22T08:36:03.199Z,23.04
2022-08-22T08:41:41.070Z,23.13
2022-08-22T08:46:59.134Z,23.56
2022-08-22T08:52:21.102Z,24.47
2022-08-22T08:58:10.290Z,25.37
2022-08-22T09:03:32.622Z,26.28
2022-08-22T09:09:01.650Z,27.00
2022-08-22T09:14:32.244Z,27.02
2022-08-22T09:20:15.489Z,27.17
2022-08-22T09:25:42.274Z,27.97
2022-08-22T09:31:16.935Z,29.73
2022-08-22T09:36:38.510Z,30.59
2022-08-22T09:41:44.999Z,29.57
2022-08-22T09:47:25.699Z,28.32
2022-08-22T09:52:47.110Z,27.07
2022-08-22T09:58:01.829Z,26.16
2022-08-22T10:03:14.641Z,25.62
2022-08-22T10:08:36.999Z,25.34
2022-08-22T10:14:00.516Z,25.27
2022-08-22T10:19:18.082Z,25.46
2022-08-22T10:24:34.148Z,25.87
2022-08-22T10:30:10.854Z,26.34
2022-08-22T10:35:33.815Z,26.38
2022-08-22T10:41:02.629Z,26.25
2022-08-22T10:46:19.101Z,26.23
2022-08-22T10:51:44.666Z,26.38
2022-08-22T10:57:00.627Z,26.52
2022-08-22T11:02:09.866Z,26.70
2022-08-22T11:07:29.885Z,26.87
2022-08-22T11:12:50.614Z,27.33
2022-08-22T11:18:24.353Z,28.24
2022-08-22T11:23:37.560Z,29.92
2022-08-22T11:29:13.279Z,32.47
2022-08-22T11:34:44.911Z,34.17
2022-08-22T11:40:20.370Z,34.07
2022-08-22T11:45:35.861Z,33.17
2022-08-22T11:50:55.793Z,32.57
2022-08-22T11:56:22.679Z,31.98
2022-08-22T12:01:42.203Z,32.07
2022-08-22T12:07:07.300Z,33.99
2022-08-22T12:12:38.567Z,33.55
2022-08-22T12:18:01.345Z,32.94
2022-08-22T12:23:16.873Z,32.51
2022-08-22T12:28:43.836Z,32.06
2022-08-22T12:33:58.687Z,31.91
2022-08-22T12:39:41.075Z,31.67
2022-08-22T12:45:18.158Z,30.90
2022-08-22T12:50:31.360Z,30.09
2022-08-22T12:55:55.605Z,29.59
2022-08-22T13:01:05.010Z,29.34
2022-08-22T13:06:34.033Z,29.52
2022-08-22T13:11:43.647Z,30.36
2022-08-22T13:16:51.333Z,31.65
2022-08-22T13:22:01.510Z,32.60
2022-08-22T13:27:15.479Z,33.04
2022-08-22T13:32:28.087Z,32.89
2022-08-22T13:37:43.407Z,33.00
2022-08-22T13:42:50.253Z,33.12
2022-08-22T13:48:03.699Z,34.09
2022-08-22T13:53:28.445Z,35.48
2022-08-22T13:58:52.878Z,36.63
2022-08-22T14:04:28.813Z,36.10
2022-08-22T14:09:41.057Z,35.05
2022-08-22T14:14:49.246Z,33.76
2022-08-22T14:20:03.035Z,32.45
2022-08-22T14:25:21.311Z,31.27
2022-08-22T14:30:39.355Z,30.40
2022-08-22T14:35:52.648Z,29.72
2022-08-22T14:41:06.316Z,29.18
2022-08-22T14:46:14.716Z,28.77
2022-08-22T14:51:23.481Z,28.45
2022-08-22T14:56:29.842Z,28.03
2022-08-22T15:01:37.336Z,27.65
2022-08-22T15:06:52.715Z,27.25
2022-08-22T15:11:56.032Z,26.92
2022-08-22T15:17:02.053Z,26.77
2022-08-22T15:22:15.158Z,26.78
2022-08-22T15:27:20.509Z,26.92
2022-08-22T15:32:29.821Z,27.17
2022-08-22T15:37:52.207Z,27.13
2022-08-22T15:42:58.326Z,27.00
2022-08-22T15:48:05.561Z,26.76
2022-08-22T15:53:18.902Z,26.71
2022-08-22T15:58:24.921Z,26.58
2022-08-22T16:03:31.940Z,26.41
2022-08-22T16:08:46.961Z,26.17
2022-08-22T16:14:21.760Z,25.94
2022-08-22T16:19:27.823Z,25.63
2022-08-22T16:24:33.863Z,25.34
2022-08-22T16:29:41.878Z,25.04
2022-08-22T16:34:46.056Z,24.77
2022-08-22T16:39:58.632Z,24.52
2022-08-22T16:45:13.443Z,24.35
2022-08-22T16:50:16.577Z,24.20
2022-08-22T16:55:28.617Z,23.97
2022-08-22T17:00:34.313Z,23.72
2022-08-22T17:06:32.591Z,23.46
2022-08-22T17:12:03.308Z,23.14
2022-08-22T17:17:40.789Z,22.83
2022-08-22T17:23:03.231Z,22.61
2022-08-22T17:28:24.312Z,22.39
2022-08-22T17:33:52.898Z,22.16
2022-08-22T17:39:29.123Z,21.95
2022-08-22T17:44:43.403Z,21.77
2022-08-22T17:49:55.139Z,21.61
2022-08-22T17:55:05.589Z,21.47
2022-08-22T18:00:33.797Z,21.33
2022-08-22T18:05:47.000Z,21.23
2022-08-22T18:11:02.079Z,21.12
2022-08-22T18:16:08.310Z,21.05
2022-08-22T18:21:27.088Z,20.94
2022-08-22T18:26:42.073Z,20.85
2022-08-22T18:32:00.624Z,20.79
2022-08-22T18:37:24.639Z,20.71
2022-08-22T18:42:47.797Z,20.64
2022-08-22T18:47:57.224Z,20.54
2022-08-22T18:53:00.809Z,20.44
2022-08-22T18:58:22.267Z,20.37
2022-08-22T19:03:39.929Z,20.32
2022-08-22T19:08:59.670Z,20.27
2022-08-22T19:14:35.820Z,20.22
2022-08-22T19:20:35.102Z,20.15
2022-08-22T19:26:16.387Z,20.04
2022-08-22T19:31:41.952Z,19.95
2022-08-22T19:36:46.335Z,19.88
2022-08-22T19:41:54.382Z,19.84
2022-08-22T19:47:09.071Z,19.79
2022-08-22T19:52:30.356Z,19.72
2022-08-22T19:57:52.819Z,19.64
2022-08-22T20:03:04.231Z,19.58
2022-08-22T20:08:19.082Z,19.55
2022-08-22T20:13:25.507Z,19.55
2022-08-22T20:19:05.063Z,19.55
2022-08-22T20:24:15.566Z,19.57
2022-08-22T20:29:20.009Z,19.57
2022-08-22T20:34:30.433Z,19.59
2022-08-22T20:39:50.610Z,19.62
2022-08-22T20:45:12.158Z,19.64
2022-08-22T20:50:20.445Z,19.64
2022-08-22T20:55:27.260Z,19.63
2022-08-22T21:00:42.429Z,19.60
2022-08-22T21:05:46.399Z,19.60
2022-08-22T21:11:24.653Z,19.62
2022-08-22T21:16:31.628Z,19.62
2022-08-22T21:21:35.118Z,19.59
2022-08-22T21:26:52.082Z,19.55
2022-08-22T21:31:59.318Z,19.53
2022-08-22T21:37:14.333Z,19.52
2022-08-22T21:42:27.445Z,19.52
2022-08-22T21:47:37.103Z,19.51
2022-08-22T21:52:56.270Z,19.46
2022-08-22T21:58:05.331Z,19.40
2022-08-22T22:03:08.243Z,19.33
2022-08-22T22:08:11.725Z,19.28
2022-08-22T22:13:15.721Z,19.21
2022-08-22T22:18:25.063Z,19.16
2022-08-22T22:23:28.632Z,19.12
2022-08-22T22:28:36.617Z,19.08
2022-08-22T22:33:41.724Z,19.06
2022-08-22T22:38:45.494Z,19.10
2022-08-22T22:43:48.426Z,19.14
2022-08-22T22:48:51.098Z,19.16
2022-08-22T22:53:56.095Z,19.19
2022-08-22T22:59:12.810Z,19.17
2022-08-22T23:04:16.565Z,19.10
2022-08-22T23:09:19.261Z,19.02
2022-08-22T23:14:22.514Z,18.92
2022-08-22T23:19:26.799Z,18.82
2022-08-22T23:24:31.245Z,18.76
2022-08-22T23:29:34.737Z,18.70
2022-08-22T23:34:46.295Z,18.63
2022-08-22T23:39:49.989Z,18.57
2022-08-22T23:44:52.758Z,18.54
2022-08-22T23:49:55.499Z,18.54
2022-08-22T23:54:58.185Z,18.54
